Aeroporto :
LOGIN :

Iscrizione | Disclaimer

   EN    FR    IT 

 










Sommario :    VFR   VFR Marginale   IFR   IFR Intensivo   IFR Molto Intensivo
Visibilità : 
Base nubi : 
>= 8 km
>= 3000ft
5 / 8 km
1000 / 3000 ft
1500m / 5 km
500 / 1000 ft
800 / 1500m
200 / 500 ft
< 800m
< 200 ft
Simboli :   Temporali  Nebbia  Neve Forte  Precipitazioni Forti  Vento > 20 kt
SIGMETs :   Varie  Temporali  Ghiacco  Turbolenza  Onda orograficha  Ceneri Vulcaniche







- Altitudine del aeroporto : 353 ft
- Codice IATA : ZAG


LDZA - Zagreb Pleso

ULTIMO METAR :
  • 260200Z 00000KT CAVOK 11/09 Q1015 NOSIG

METARs OBSOLETI :
  • 260130Z 00000KT 9999 VV/// 11/09 Q1016 NOSIG
  • 260100Z 00000KT CAVOK 12/09 Q1016 NOSIG
  • 260030Z 14003KT 110V170 CAVOK 13/10 Q1016 NOSIG
  • 260000Z 12001KT CAVOK 13/10 Q1016 NOSIG
  • 252330Z 00000KT CAVOK 13/10 Q1016 NOSIG

TAF TAF LDZA
Valido dal 26 a 00 ore il 27 a 00 ore UTC


252325Z 2600/2700 23004KT CAVOK TX26/2613Z TN11/2605Z
BECMG 2612/2614 23012KT
PROB30
TEMPO 2613/2617 33015KT TSRA FEW040CB
BECMG 2617/2619 23006KT
ATIS : +385 1 6-259-214
Nessun NOTAM noto per questo aeroporto.



MetMap, La meteo Aeronautica in un colpo d'occhio ! - Copyright ORBIFLY Dicembre 2007 - Disclaimer

ORBIFLY MET'MAP TEAM :

Programmazione e sviluppo : Alexandra Zaïnal
Concezione e sviluppo : Baudouin d'Aumeries
Co-Programmazione e sviluppo : Marc-Olivier Méhu
Supporto tecnico e logistico : Manuel Goepfert
Aiuto per la traduzione : Arnaldo La Scala

Contatto : metmap@orbifly.com




FONTI E CREDITI :

   NOAA